createdAt,value
2019-02-09T00:00:28.259Z,8.08
2019-02-09T00:02:56.529Z,8.08
2019-02-09T00:05:24.765Z,8.12
2019-02-09T00:07:53.078Z,8.00
2019-02-09T00:10:21.331Z,7.88
2019-02-09T00:12:49.636Z,7.83
2019-02-09T00:15:17.947Z,7.68
2019-02-09T00:17:46.177Z,7.64
2019-02-09T00:20:16.363Z,7.64
2019-02-09T00:22:44.685Z,7.53
2019-02-09T00:25:16.099Z,7.65
2019-02-09T00:27:44.339Z,7.63
2019-02-09T00:30:16.975Z,7.66
2019-02-09T00:32:45.217Z,7.62
2019-02-09T00:35:17.496Z,7.64
2019-02-09T00:37:45.740Z,7.62
2019-02-09T00:40:16.421Z,7.58
2019-02-09T00:42:44.689Z,7.60
2019-02-09T00:45:15.361Z,7.42
2019-02-09T00:47:43.692Z,7.40
2019-02-09T00:50:14.246Z,7.28
2019-02-09T00:52:42.505Z,7.29
2019-02-09T00:55:22.295Z,7.28
2019-02-09T00:57:50.546Z,7.12
2019-02-09T01:00:21.893Z,7.14
2019-02-09T01:02:50.140Z,7.08
2019-02-09T01:05:23.875Z,7.04
2019-02-09T01:07:52.129Z,7.05
2019-02-09T01:10:21.117Z,7.12
2019-02-09T01:12:49.366Z,6.98
2019-02-09T01:15:18.463Z,7.00
2019-02-09T01:17:46.806Z,6.87
2019-02-09T01:20:20.857Z,6.83
2019-02-09T01:22:49.182Z,6.83
2019-02-09T01:25:17.514Z,6.86
2019-02-09T01:27:45.775Z,6.84
2019-02-09T01:30:19.959Z,6.81
2019-02-09T01:32:48.458Z,6.82
2019-02-09T01:35:16.783Z,6.76
2019-02-09T01:37:45.118Z,6.79
2019-02-09T01:40:18.842Z,6.84
2019-02-09T01:42:47.077Z,6.77
2019-02-09T01:45:23.679Z,6.86
2019-02-09T01:47:51.917Z,6.82
2019-02-09T01:50:21.730Z,6.77
2019-02-09T01:52:50.045Z,6.82
2019-02-09T01:55:18.364Z,6.80
2019-02-09T01:57:46.639Z,6.81
2019-02-09T02:00:16.920Z,6.75
2019-02-09T02:02:45.149Z,6.76
2019-02-09T02:05:15.649Z,6.69
2019-02-09T02:07:43.890Z,6.67
2019-02-09T02:10:15.309Z,6.65
2019-02-09T02:12:43.571Z,6.58
2019-02-09T02:15:15.230Z,6.63
2019-02-09T02:17:43.544Z,6.60
2019-02-09T02:20:19.980Z,6.63
2019-02-09T02:22:48.232Z,6.58
2019-02-09T02:25:16.711Z,6.56
2019-02-09T02:27:44.978Z,6.61
2019-02-09T02:30:22.655Z,6.61
2019-02-09T02:32:46.374Z,6.54
2019-02-09T02:35:14.632Z,6.55
2019-02-09T02:37:42.875Z,6.49
2019-02-09T02:40:13.561Z,6.52
2019-02-09T02:42:41.820Z,6.57
2019-02-09T02:45:13.118Z,6.53
2019-02-09T02:47:41.386Z,6.48
2019-02-09T02:50:14.532Z,6.44
2019-02-09T02:52:42.775Z,6.41
2019-02-09T02:55:13.882Z,6.45
2019-02-09T02:57:42.144Z,6.49
2019-02-09T03:00:13.428Z,6.46
2019-02-09T03:02:41.706Z,6.44
2019-02-09T03:05:12.682Z,6.48
2019-02-09T03:07:40.936Z,6.46
2019-02-09T03:10:10.621Z,6.47
2019-02-09T03:12:38.870Z,6.43
2019-02-09T03:15:10.303Z,6.43
2019-02-09T03:17:38.550Z,6.44
2019-02-09T03:20:09.916Z,6.46
2019-02-09T03:22:38.168Z,6.51
2019-02-09T03:25:09.649Z,6.50
2019-02-09T03:27:37.899Z,6.47
2019-02-09T03:30:09.552Z,6.52
2019-02-09T03:32:37.822Z,6.51
2019-02-09T03:35:08.409Z,6.54
2019-02-09T03:37:36.648Z,6.58
2019-02-09T03:40:16.570Z,6.57
2019-02-09T03:42:44.951Z,6.56
2019-02-09T03:45:21.621Z,6.56
2019-02-09T03:47:51.228Z,6.63
2019-02-09T03:50:22.604Z,6.58
2019-02-09T03:52:50.868Z,6.63
2019-02-09T03:55:19.121Z,6.63
2019-02-09T03:57:47.365Z,6.63
2019-02-09T04:00:20.796Z,6.67
2019-02-09T04:02:49.410Z,6.65
2019-02-09T04:05:17.755Z,6.65
2019-02-09T04:07:45.991Z,6.70
2019-02-09T04:10:19.833Z,6.68
2019-02-09T04:12:48.220Z,6.73
2019-02-09T04:15:18.429Z,6.68
2019-02-09T04:17:46.723Z,6.70
2019-02-09T04:20:20.199Z,6.67
2019-02-09T04:22:48.506Z,6.66
2019-02-09T04:25:18.395Z,6.72
2019-02-09T04:27:46.641Z,6.76
2019-02-09T04:30:26.091Z,6.77
2019-02-09T04:32:54.411Z,6.79
2019-02-09T04:35:22.753Z,6.78
2019-02-09T04:37:51.041Z,6.73
2019-02-09T04:40:28.834Z,6.75
2019-02-09T04:42:57.082Z,6.72
2019-02-09T04:45:25.339Z,6.77
2019-02-09T04:47:53.579Z,6.79
2019-02-09T04:50:21.965Z,6.76
2019-02-09T04:52:50.275Z,6.77
2019-02-09T04:55:20.215Z,6.82
2019-02-09T04:57:48.596Z,6.88
2019-02-09T05:00:19.766Z,6.87
2019-02-09T05:02:48.019Z,6.86
2019-02-09T05:05:16.269Z,6.85
2019-02-09T05:07:44.508Z,6.88
2019-02-09T05:10:15.381Z,6.87
2019-02-09T05:12:43.626Z,6.86
2019-02-09T05:15:14.215Z,6.80
2019-02-09T05:17:42.535Z,6.82
2019-02-09T05:20:13.331Z,6.84
2019-02-09T05:22:41.571Z,6.79
2019-02-09T05:25:11.848Z,6.78
2019-02-09T05:27:40.108Z,6.70
2019-02-09T05:30:17.244Z,6.73
2019-02-09T05:32:45.499Z,6.76
2019-02-09T05:35:13.882Z,6.74
2019-02-09T05:37:42.154Z,6.76
2019-02-09T05:40:13.376Z,6.77
2019-02-09T05:42:41.629Z,6.78
2019-02-09T05:45:15.440Z,6.84
2019-02-09T05:47:43.678Z,6.85
2019-02-09T05:50:14.869Z,6.84
2019-02-09T05:52:43.117Z,6.81
2019-02-09T05:55:11.455Z,6.77
2019-02-09T05:57:39.776Z,6.84
2019-02-09T06:00:21.337Z,6.84
2019-02-09T06:02:49.588Z,6.81
2019-02-09T06:05:17.851Z,6.82
2019-02-09T06:07:46.085Z,6.76
2019-02-09T06:10:17.547Z,6.76
2019-02-09T06:12:45.793Z,6.74
2019-02-09T06:15:17.261Z,6.72
2019-02-09T06:17:45.521Z,6.70
2019-02-09T06:20:21.704Z,6.73
2019-02-09T06:22:49.959Z,6.73
2019-02-09T06:25:18.277Z,6.79
2019-02-09T06:27:46.602Z,6.79
2019-02-09T06:30:20.406Z,6.80
2019-02-09T06:32:48.704Z,6.89
2019-02-09T06:35:16.994Z,6.91
2019-02-09T06:37:45.211Z,6.94
2019-02-09T06:40:15.877Z,6.94
2019-02-09T06:42:44.203Z,6.91
2019-02-09T06:45:17.223Z,6.96
2019-02-09T06:47:45.549Z,6.90
2019-02-09T06:50:19.160Z,6.85
2019-02-09T06:52:47.388Z,6.87
2019-02-09T06:55:16.382Z,6.84
2019-02-09T06:57:44.691Z,6.84
2019-02-09T07:00:18.316Z,6.79
2019-02-09T07:02:46.559Z,6.73
2019-02-09T07:05:19.455Z,7.19
2019-02-09T07:07:47.807Z,6.82
2019-02-09T07:10:21.439Z,6.77
2019-02-09T07:12:49.698Z,6.65
2019-02-09T07:15:20.959Z,6.62
2019-02-09T07:17:49.233Z,6.55
2019-02-09T07:20:17.550Z,6.53
2019-02-09T07:22:46.150Z,6.43
2019-02-09T07:25:15.016Z,6.43
2019-02-09T07:27:43.265Z,6.42
2019-02-09T07:30:23.221Z,6.38
2019-02-09T07:32:51.547Z,6.39
2019-02-09T07:35:19.882Z,6.41
2019-02-09T07:37:48.142Z,6.46
2019-02-09T07:40:19.485Z,6.49
2019-02-09T07:42:48.546Z,6.43
2019-02-09T07:45:19.039Z,6.45
2019-02-09T07:47:47.286Z,6.44
2019-02-09T07:50:17.364Z,6.49
2019-02-09T07:52:45.628Z,6.55
2019-02-09T07:55:16.473Z,6.63
2019-02-09T07:57:44.716Z,6.64
2019-02-09T08:00:16.293Z,6.73
2019-02-09T08:02:44.523Z,6.72
2019-02-09T08:05:13.608Z,6.73
2019-02-09T08:07:41.998Z,6.80
2019-02-09T08:10:15.623Z,6.81
2019-02-09T08:12:43.928Z,6.86
2019-02-09T08:15:15.350Z,6.90
2019-02-09T08:17:43.600Z,6.94
2019-02-09T08:20:15.007Z,6.96
2019-02-09T08:22:43.319Z,6.97
2019-02-09T08:25:14.961Z,7.04
2019-02-09T08:27:43.219Z,7.05
2019-02-09T08:30:14.575Z,7.09
2019-02-09T08:32:42.846Z,7.12
2019-02-09T08:35:11.164Z,7.20
2019-02-09T08:37:39.405Z,7.21
2019-02-09T08:40:10.302Z,7.27
2019-02-09T08:42:39.931Z,7.35
2019-02-09T08:45:19.295Z,7.35
2019-02-09T08:47:47.606Z,7.29
2019-02-09T08:50:30.555Z,7.33
2019-02-09T08:52:58.826Z,7.34
2019-02-09T08:55:27.077Z,7.41
2019-02-09T08:57:55.311Z,7.38
2019-02-09T09:00:31.626Z,7.36
2019-02-09T09:02:59.935Z,7.36
2019-02-09T09:05:28.358Z,7.40
2019-02-09T09:07:56.753Z,7.45
2019-02-09T09:10:27.436Z,7.55
2019-02-09T09:12:55.914Z,7.66
2019-02-09T09:15:38.304Z,7.72
2019-02-09T09:18:07.111Z,7.65
2019-02-09T09:20:37.799Z,7.65
2019-02-09T09:23:06.061Z,7.65
2019-02-09T09:25:34.313Z,7.66
2019-02-09T09:28:02.648Z,7.68
2019-02-09T09:30:31.830Z,7.77
2019-02-09T09:33:00.075Z,7.80
2019-02-09T09:35:28.333Z,7.80
2019-02-09T09:37:56.849Z,7.80
2019-02-09T09:40:27.405Z,7.92
2019-02-09T09:42:55.786Z,7.93
2019-02-09T09:45:26.828Z,8.03
2019-02-09T09:47:55.163Z,8.00
2019-02-09T09:50:24.997Z,7.97
2019-02-09T09:52:53.259Z,8.01
2019-02-09T09:55:21.503Z,8.05
2019-02-09T09:57:49.750Z,8.11
2019-02-09T10:00:23.174Z,8.12
2019-02-09T10:02:51.458Z,8.10
2019-02-09T10:05:19.718Z,8.11
2019-02-09T10:07:48.009Z,8.13
2019-02-09T10:10:18.102Z,8.19
2019-02-09T10:12:46.486Z,8.17
2019-02-09T10:15:18.726Z,8.14
2019-02-09T10:17:46.946Z,8.20
2019-02-09T10:20:17.794Z,8.23
2019-02-09T10:22:46.024Z,8.35
2019-02-09T10:25:14.800Z,8.43
2019-02-09T10:27:43.497Z,8.45
2019-02-09T10:30:20.475Z,8.45
2019-02-09T10:32:48.955Z,8.39
2019-02-09T10:35:18.434Z,8.43
2019-02-09T10:37:46.962Z,8.49
2019-02-09T10:40:21.035Z,8.39
2019-02-09T10:42:49.362Z,8.58
2019-02-09T10:45:20.155Z,8.71
2019-02-09T10:47:48.375Z,8.80
2019-02-09T10:50:19.680Z,8.57
2019-02-09T10:52:47.914Z,8.59
2019-02-09T10:55:16.252Z,8.67
2019-02-09T10:57:44.567Z,8.72
2019-02-09T11:00:18.750Z,9.03
2019-02-09T11:02:52.067Z,9.31
2019-02-09T11:05:17.379Z,9.09
2019-02-09T11:07:45.648Z,9.03
2019-02-09T11:10:17.100Z,8.94
2019-02-09T11:12:45.314Z,9.02
2019-02-09T11:15:16.663Z,8.91
2019-02-09T11:17:44.910Z,8.88
2019-02-09T11:20:16.357Z,8.83
2019-02-09T11:22:44.618Z,8.74
2019-02-09T11:25:15.098Z,8.67
2019-02-09T11:27:43.341Z,8.64
2019-02-09T11:30:15.004Z,8.68
2019-02-09T11:32:43.247Z,8.68
2019-02-09T11:35:13.132Z,8.63
2019-02-09T11:37:41.451Z,8.61
2019-02-09T11:40:13.631Z,8.55
2019-02-09T11:42:41.887Z,8.65
2019-02-09T11:45:15.866Z,8.68
2019-02-09T11:47:44.147Z,8.70
2019-02-09T11:50:14.126Z,8.73
2019-02-09T11:52:42.371Z,8.73
2019-02-09T11:55:15.989Z,8.79
2019-02-09T11:57:44.290Z,8.79
2019-02-09T12:00:18.382Z,8.91
2019-02-09T12:02:46.930Z,8.94
2019-02-09T12:05:15.435Z,9.00
2019-02-09T12:07:43.885Z,9.02
2019-02-09T12:10:20.084Z,8.97
2019-02-09T12:12:48.392Z,8.99
2019-02-09T12:15:25.591Z,9.03
2019-02-09T12:17:53.848Z,9.02
2019-02-09T12:20:22.424Z,8.98
2019-02-09T12:22:50.693Z,8.96
2019-02-09T12:25:21.285Z,8.89
2019-02-09T12:27:49.553Z,8.90
2019-02-09T12:30:25.596Z,8.95
2019-02-09T12:32:53.908Z,8.94
2019-02-09T12:35:22.443Z,8.94
2019-02-09T12:37:50.654Z,9.02
2019-02-09T12:40:24.608Z,9.04
2019-02-09T12:42:52.846Z,9.08
2019-02-09T12:45:25.567Z,9.14
2019-02-09T12:47:53.830Z,9.15
2019-02-09T12:50:24.328Z,9.14
2019-02-09T12:52:52.657Z,9.08
2019-02-09T12:55:20.966Z,9.07
2019-02-09T12:57:49.230Z,9.08
2019-02-09T13:00:37.117Z,9.12
2019-02-09T13:03:14.370Z,9.12
2019-02-09T13:05:42.654Z,9.20
2019-02-09T13:08:10.973Z,9.17
2019-02-09T13:10:39.226Z,9.16
2019-02-09T13:13:07.475Z,9.13
2019-02-09T13:15:35.778Z,9.09
2019-02-09T13:18:04.359Z,9.08
2019-02-09T13:20:33.340Z,9.11
2019-02-09T13:23:01.661Z,9.16
2019-02-09T13:25:29.913Z,9.18
2019-02-09T13:27:58.425Z,9.25
2019-02-09T13:30:35.272Z,9.27
2019-02-09T13:33:03.517Z,9.29
2019-02-09T13:35:31.766Z,9.28
2019-02-09T13:38:00.035Z,9.24
2019-02-09T13:40:28.724Z,9.20
2019-02-09T13:42:58.113Z,9.17
2019-02-09T13:45:44.363Z,9.16
2019-02-09T13:48:12.612Z,9.11
2019-02-09T13:50:40.994Z,9.11
2019-02-09T13:53:09.309Z,9.09
2019-02-09T13:55:37.578Z,9.04
2019-02-09T13:58:05.824Z,9.05
2019-02-09T14:00:34.140Z,9.04
2019-02-09T14:03:03.130Z,9.10
2019-02-09T14:05:31.408Z,9.14
2019-02-09T14:07:59.902Z,9.21
2019-02-09T14:10:28.824Z,9.26
2019-02-09T14:12:57.221Z,9.37
2019-02-09T14:15:29.957Z,9.48
2019-02-09T14:17:59.349Z,9.48
2019-02-09T14:20:27.662Z,9.60
2019-02-09T14:22:55.994Z,9.65
2019-02-09T14:25:24.244Z,9.64
2019-02-09T14:27:54.200Z,9.60
2019-02-09T14:30:27.921Z,9.50
2019-02-09T14:32:56.231Z,9.47
2019-02-09T14:35:24.487Z,9.55
2019-02-09T14:37:53.281Z,9.56
2019-02-09T14:40:30.070Z,9.52
2019-02-09T14:42:58.397Z,9.50
2019-02-09T14:45:34.396Z,9.46
2019-02-09T14:48:02.633Z,9.35
2019-02-09T14:50:30.892Z,9.25
2019-02-09T14:52:59.215Z,9.07
2019-02-09T14:55:29.655Z,8.78
2019-02-09T14:57:57.890Z,8.45
2019-02-09T15:00:37.474Z,8.03
2019-02-09T15:03:06.874Z,7.52
2019-02-09T15:05:35.187Z,7.18
2019-02-09T15:08:03.498Z,6.84
2019-02-09T15:10:31.738Z,6.63
2019-02-09T15:12:59.984Z,6.59
2019-02-09T15:15:31.038Z,6.50
2019-02-09T15:17:59.292Z,6.54
2019-02-09T15:20:33.607Z,6.63
2019-02-09T15:23:01.847Z,6.65
2019-02-09T15:25:31.972Z,6.63
2019-02-09T15:28:00.223Z,6.63
2019-02-09T15:30:30.098Z,6.65
2019-02-09T15:32:58.350Z,6.67
2019-02-09T15:35:26.667Z,6.65
2019-02-09T15:37:54.917Z,6.64
2019-02-09T15:40:23.254Z,6.63
2019-02-09T15:42:51.497Z,6.63
2019-02-09T15:45:22.476Z,6.64
2019-02-09T15:47:50.803Z,6.65
2019-02-09T15:50:19.321Z,6.70
2019-02-09T15:52:48.712Z,6.76
2019-02-09T15:55:22.271Z,6.77
2019-02-09T15:57:50.562Z,6.79
2019-02-09T16:00:31.895Z,6.82
2019-02-09T16:03:00.883Z,6.78
2019-02-09T16:05:29.214Z,6.83
2019-02-09T16:07:57.450Z,6.89
2019-02-09T16:10:26.059Z,6.97
2019-02-09T16:12:54.567Z,6.99
2019-02-09T16:15:28.779Z,7.03
2019-02-09T16:17:57.028Z,7.03
2019-02-09T16:20:27.789Z,7.03
2019-02-09T16:22:56.021Z,7.07
2019-02-09T16:25:24.297Z,7.05
2019-02-09T16:27:52.535Z,7.03
2019-02-09T16:30:30.413Z,7.01
2019-02-09T16:32:58.645Z,6.99
2019-02-09T16:35:28.240Z,6.95
2019-02-09T16:37:56.501Z,6.99
2019-02-09T16:40:30.438Z,6.97
2019-02-09T16:42:58.676Z,6.97
2019-02-09T16:45:35.988Z,7.04
2019-02-09T16:48:07.504Z,7.07
2019-02-09T16:50:35.751Z,7.07
2019-02-09T16:53:04.462Z,7.01
2019-02-09T16:55:32.792Z,6.98
2019-02-09T16:58:01.090Z,6.98
2019-02-09T17:00:32.417Z,7.04
2019-02-09T17:03:00.657Z,7.05
2019-02-09T17:05:28.906Z,7.13
2019-02-09T17:07:57.157Z,7.13
2019-02-09T17:10:25.434Z,7.09
2019-02-09T17:12:53.664Z,7.09
2019-02-09T17:15:25.206Z,7.05
2019-02-09T17:17:53.415Z,7.02
2019-02-09T17:20:21.687Z,7.04
2019-02-09T17:22:51.687Z,7.06
2019-02-09T17:25:24.670Z,6.96
2019-02-09T17:27:52.914Z,6.92
2019-02-09T17:30:32.802Z,6.97
2019-02-09T17:33:01.050Z,6.92
2019-02-09T17:35:29.376Z,6.95
2019-02-09T17:37:57.627Z,6.96
2019-02-09T17:40:28.036Z,6.89
2019-02-09T17:42:56.288Z,6.83
2019-02-09T17:45:29.722Z,6.79
2019-02-09T17:47:57.993Z,6.74
2019-02-09T17:50:26.261Z,6.69
2019-02-09T17:52:54.512Z,6.62
2019-02-09T17:55:22.835Z,6.52
2019-02-09T17:57:51.101Z,6.44
2019-02-09T18:00:24.147Z,6.39
2019-02-09T18:02:52.418Z,6.37
2019-02-09T18:05:20.663Z,6.30
2019-02-09T18:07:48.916Z,6.31
2019-02-09T18:10:18.310Z,6.27
2019-02-09T18:12:46.565Z,6.32
2019-02-09T18:15:19.608Z,6.35
2019-02-09T18:17:47.864Z,6.38
2019-02-09T18:20:16.969Z,6.38
2019-02-09T18:22:45.212Z,6.45
2019-02-09T18:25:16.080Z,6.44
2019-02-09T18:27:44.343Z,6.50
2019-02-09T18:30:20.717Z,6.51
2019-02-09T18:32:49.032Z,6.50
2019-02-09T18:35:17.309Z,6.53
2019-02-09T18:37:45.563Z,6.54
2019-02-09T18:40:21.374Z,6.62
2019-02-09T18:42:49.643Z,6.64
2019-02-09T18:45:31.201Z,6.77
2019-02-09T18:47:59.630Z,6.81
2019-02-09T18:50:31.485Z,6.83
2019-02-09T18:53:00.879Z,6.93
2019-02-09T18:55:29.676Z,7.00
2019-02-09T18:57:58.023Z,7.02
2019-02-09T19:00:34.404Z,7.03
2019-02-09T19:03:02.745Z,7.07
2019-02-09T19:05:31.024Z,7.14
2019-02-09T19:07:59.335Z,7.12
2019-02-09T19:10:28.649Z,7.09
2019-02-09T19:12:57.130Z,7.10
2019-02-09T19:15:27.292Z,7.09
2019-02-09T19:17:56.593Z,7.09
2019-02-09T19:20:42.510Z,7.11
2019-02-09T19:23:10.852Z,7.15
2019-02-09T19:25:39.103Z,7.18
2019-02-09T19:28:07.528Z,7.14
2019-02-09T19:30:36.560Z,7.16
2019-02-09T19:33:05.725Z,7.18
2019-02-09T19:35:34.000Z,7.20
2019-02-09T19:38:02.253Z,7.27
2019-02-09T19:40:31.522Z,7.27
2019-02-09T19:42:59.995Z,7.27
2019-02-09T19:45:38.648Z,7.26
2019-02-09T19:48:07.752Z,7.25
2019-02-09T19:50:35.991Z,7.24
2019-02-09T19:53:04.521Z,7.26
2019-02-09T19:55:35.145Z,7.25
2019-02-09T19:58:03.588Z,7.20
2019-02-09T20:00:45.929Z,7.25
2019-02-09T20:03:14.278Z,7.30
2019-02-09T20:05:42.542Z,7.27
2019-02-09T20:08:11.196Z,7.28
2019-02-09T20:10:40.891Z,7.36
2019-02-09T20:13:11.848Z,7.39
2019-02-09T20:15:40.104Z,7.46
2019-02-09T20:18:09.098Z,7.49
2019-02-09T20:20:37.483Z,7.48
2019-02-09T20:23:06.221Z,7.50
2019-02-09T20:25:36.979Z,7.53
2019-02-09T20:28:06.198Z,7.58
2019-02-09T20:30:36.925Z,7.60
2019-02-09T20:33:05.553Z,7.57
2019-02-09T20:35:35.694Z,7.62
2019-02-09T20:38:05.094Z,7.65
2019-02-09T20:40:53.520Z,7.62
2019-02-09T20:43:22.438Z,7.66
2019-02-09T20:45:50.754Z,7.68
2019-02-09T20:48:19.004Z,7.67
2019-02-09T20:50:47.257Z,7.66
2019-02-09T20:53:15.507Z,7.68
2019-02-09T20:55:43.757Z,7.67
2019-02-09T20:58:13.354Z,7.66
2019-02-09T21:00:41.663Z,7.66
2019-02-09T21:03:09.930Z,7.69
2019-02-09T21:05:38.435Z,7.72
2019-02-09T21:08:07.010Z,7.74
2019-02-09T21:10:44.437Z,7.82
2019-02-09T21:13:13.683Z,7.80
2019-02-09T21:15:41.948Z,7.81
2019-02-09T21:18:10.267Z,7.87
2019-02-09T21:20:38.827Z,7.87
2019-02-09T21:23:07.365Z,7.83
2019-02-09T21:25:40.929Z,7.84
2019-02-09T21:28:10.824Z,7.80
2019-02-09T21:30:39.220Z,7.76
2019-02-09T21:33:10.845Z,7.75
2019-02-09T21:35:44.064Z,7.75
2019-02-09T21:38:10.973Z,7.77
2019-02-09T21:40:39.247Z,7.76
2019-02-09T21:43:08.468Z,7.73
2019-02-09T21:45:44.557Z,7.72
2019-02-09T21:48:06.754Z,7.71
2019-02-09T21:50:39.501Z,7.72
2019-02-09T21:53:08.320Z,7.70
2019-02-09T21:55:36.859Z,7.71
2019-02-09T21:58:06.477Z,7.67
2019-02-09T22:00:39.571Z,7.70
2019-02-09T22:03:09.174Z,7.66
2019-02-09T22:05:37.436Z,7.69
2019-02-09T22:08:07.516Z,7.66
2019-02-09T22:10:35.766Z,7.61
2019-02-09T22:13:04.029Z,7.60
2019-02-09T22:15:38.946Z,7.58
2019-02-09T22:18:03.510Z,7.57
2019-02-09T22:20:31.735Z,7.61
2019-02-09T22:22:59.974Z,7.60
2019-02-09T22:25:29.163Z,7.52
2019-02-09T22:27:57.486Z,7.45
2019-02-09T22:30:27.362Z,7.49
2019-02-09T22:32:55.763Z,7.46
2019-02-09T22:35:24.237Z,7.46
2019-02-09T22:37:52.470Z,7.46
2019-02-09T22:40:28.056Z,7.42
2019-02-09T22:42:56.306Z,7.42
2019-02-09T22:45:25.257Z,7.34
2019-02-09T22:47:54.301Z,7.26
2019-02-09T22:50:34.028Z,7.26
2019-02-09T22:53:02.284Z,7.30
2019-02-09T22:55:30.523Z,7.70
2019-02-09T22:57:58.763Z,7.37
2019-02-09T23:00:47.642Z,7.30
2019-02-09T23:03:16.758Z,7.28
2019-02-09T23:05:48.165Z,7.22
2019-02-09T23:08:16.430Z,7.22
2019-02-09T23:10:44.702Z,7.27
2019-02-09T23:13:12.943Z,7.26
2019-02-09T23:15:41.192Z,7.25
2019-02-09T23:18:09.439Z,7.21
2019-02-09T23:20:37.690Z,7.28
2019-02-09T23:23:05.939Z,7.30
2019-02-09T23:25:34.178Z,7.34
2019-02-09T23:28:02.436Z,7.34
2019-02-09T23:30:30.689Z,7.31
2019-02-09T23:32:58.972Z,7.31
2019-02-09T23:35:27.211Z,7.30
2019-02-09T23:37:55.462Z,7.25
2019-02-09T23:40:23.737Z,7.27
2019-02-09T23:42:51.985Z,7.33
2019-02-09T23:45:20.253Z,7.32
2019-02-09T23:47:48.504Z,7.32
2019-02-09T23:50:16.763Z,7.32
2019-02-09T23:52:45.010Z,7.30
2019-02-09T23:55:13.260Z,7.33
2019-02-09T23:57:41.513Z,7.37
